createdAt,value
2024-05-09T00:00:22.315Z,18.7471
2024-05-09T00:01:18.970Z,18.7449
2024-05-09T00:02:21.490Z,18.7438
2024-05-09T00:03:24.061Z,18.7366
2024-05-09T00:04:26.635Z,18.7430
2024-05-09T00:05:29.365Z,18.7440
2024-05-09T00:06:31.867Z,18.7430
2024-05-09T00:07:34.368Z,18.7461
2024-05-09T00:08:37.219Z,18.7430
2024-05-09T00:09:39.522Z,18.7481
2024-05-09T00:10:42.206Z,18.7420
2024-05-09T00:11:44.733Z,18.7387
2024-05-09T00:12:47.317Z,18.7356
2024-05-09T00:13:49.872Z,18.7420
2024-05-09T00:14:52.634Z,18.7286
2024-05-09T00:15:55.010Z,18.7368
2024-05-09T00:16:57.649Z,18.7340
2024-05-09T00:18:00.402Z,18.7395
2024-05-09T00:19:02.857Z,18.7331
2024-05-09T00:20:14.245Z,18.7418
2024-05-09T00:21:07.978Z,18.7426
2024-05-09T00:22:10.522Z,18.7440
2024-05-09T00:23:13.723Z,18.7438
2024-05-09T00:24:15.685Z,18.7471
2024-05-09T00:25:18.296Z,18.7479
2024-05-09T00:26:20.911Z,18.7395
2024-05-09T00:27:23.466Z,18.7426
2024-05-09T00:28:26.048Z,18.7395
2024-05-09T00:29:28.710Z,18.7387
2024-05-09T00:30:34.979Z,18.7354
2024-05-09T00:31:33.767Z,18.7288
2024-05-09T00:32:36.605Z,18.7309
2024-05-09T00:33:39.139Z,18.7356
2024-05-09T00:34:41.512Z,18.7352
2024-05-09T00:35:44.101Z,18.7362
2024-05-09T00:36:46.679Z,18.7471
2024-05-09T00:37:49.254Z,18.7418
2024-05-09T00:38:51.815Z,18.7375
2024-05-09T00:39:54.415Z,18.7274
2024-05-09T00:40:57.038Z,18.7299
2024-05-09T00:41:59.583Z,18.7307
2024-05-09T00:43:02.148Z,18.7299
2024-05-09T00:44:04.769Z,18.7311
2024-05-09T00:45:07.306Z,18.7229
2024-05-09T00:46:09.923Z,18.7299
2024-05-09T00:47:12.555Z,18.7186
2024-05-09T00:48:17.721Z,18.7241
2024-05-09T00:49:17.794Z,18.7196
2024-05-09T00:50:29.354Z,18.7147
2024-05-09T00:51:22.866Z,18.7087
2024-05-09T00:52:25.406Z,18.7075
2024-05-09T00:53:28.055Z,18.7122
2024-05-09T00:54:30.551Z,18.7130
2024-05-09T00:55:33.171Z,18.7106
2024-05-09T00:56:35.807Z,18.7128
2024-05-09T00:57:38.300Z,18.7140
2024-05-09T00:58:40.894Z,18.7118
2024-05-09T00:59:43.466Z,18.7128
2024-05-09T01:00:46.162Z,18.7184
2024-05-09T01:01:48.774Z,18.7229
2024-05-09T01:02:51.304Z,18.7149
2024-05-09T01:03:54.054Z,18.7219
2024-05-09T01:04:56.463Z,18.7186
2024-05-09T01:05:59.074Z,18.7274
2024-05-09T01:07:01.600Z,18.7208
2024-05-09T01:08:04.212Z,18.7171
2024-05-09T01:09:06.748Z,18.7208
2024-05-09T01:10:14.039Z,18.7266
2024-05-09T01:11:11.966Z,18.7251
2024-05-09T01:12:14.680Z,18.7206
2024-05-09T01:13:17.127Z,18.7299
2024-05-09T01:14:19.690Z,18.7377
2024-05-09T01:15:22.207Z,18.7311
2024-05-09T01:16:24.799Z,18.7321
2024-05-09T01:17:27.512Z,18.7395
2024-05-09T01:18:30.089Z,18.7385
2024-05-09T01:19:32.833Z,18.7375
2024-05-09T01:20:41.514Z,18.7354
2024-05-09T01:21:37.717Z,18.7297
2024-05-09T01:22:40.300Z,18.7334
2024-05-09T01:23:42.977Z,18.7297
2024-05-09T01:24:45.452Z,18.7331
2024-05-09T01:25:48.090Z,18.7241
2024-05-09T01:26:50.621Z,18.7198
2024-05-09T01:27:53.207Z,18.7198
2024-05-09T01:28:55.830Z,18.7206
2024-05-09T01:29:58.368Z,18.7206
2024-05-09T01:31:01.007Z,18.7239
2024-05-09T01:32:03.637Z,18.7276
2024-05-09T01:33:07.967Z,18.7253
2024-05-09T01:34:08.806Z,18.7344
2024-05-09T01:35:11.391Z,18.7336
2024-05-09T01:36:13.946Z,18.7297
2024-05-09T01:37:16.559Z,18.7253
2024-05-09T01:38:19.136Z,18.7331
2024-05-09T01:39:21.705Z,18.7286
2024-05-09T01:40:33.489Z,18.7311
2024-05-09T01:41:26.946Z,18.7385
2024-05-09T01:42:29.453Z,18.7340
2024-05-09T01:43:32.051Z,18.7276
2024-05-09T01:44:34.692Z,18.7212
2024-05-09T01:45:37.207Z,18.7295
2024-05-09T01:46:39.821Z,18.7253
2024-05-09T01:47:42.693Z,18.7342
2024-05-09T01:48:45.028Z,18.7362
2024-05-09T01:49:47.637Z,18.7354
2024-05-09T01:50:50.156Z,18.7307
2024-05-09T01:51:52.716Z,18.7356
2024-05-09T01:52:55.338Z,18.7352
2024-05-09T01:53:57.905Z,18.7288
2024-05-09T01:55:03.524Z,18.7331
2024-05-09T01:56:03.166Z,18.7377
2024-05-09T01:57:05.704Z,18.7395
2024-05-09T01:58:08.210Z,18.7368
2024-05-09T01:59:10.857Z,18.7362
2024-05-09T02:00:18.798Z,18.7319
2024-05-09T02:01:16.027Z,18.7329
2024-05-09T02:02:18.701Z,18.7405
2024-05-09T02:03:21.472Z,18.7461
2024-05-09T02:04:23.941Z,18.7397
2024-05-09T02:05:26.353Z,18.7317
2024-05-09T02:06:28.908Z,18.7418
2024-05-09T02:07:31.497Z,18.7321
2024-05-09T02:08:34.222Z,18.7295
2024-05-09T02:09:36.694Z,18.7284
2024-05-09T02:10:39.270Z,18.7301
2024-05-09T02:11:41.951Z,18.7219
2024-05-09T02:12:44.423Z,18.7307
2024-05-09T02:13:47.017Z,18.7264
2024-05-09T02:14:49.714Z,18.7344
2024-05-09T02:15:52.262Z,18.7407
2024-05-09T02:16:54.831Z,18.7352
2024-05-09T02:17:57.479Z,18.7377
2024-05-09T02:19:00.013Z,18.7397
2024-05-09T02:20:02.765Z,18.7420
2024-05-09T02:21:05.256Z,18.7397
2024-05-09T02:22:07.681Z,18.7309
2024-05-09T02:23:10.368Z,18.7342
2024-05-09T02:24:12.861Z,18.7331
2024-05-09T02:25:15.557Z,18.7262
2024-05-09T02:26:18.132Z,18.7387
2024-05-09T02:27:20.631Z,18.7309
2024-05-09T02:28:23.301Z,18.7407
2024-05-09T02:29:25.916Z,18.7309
2024-05-09T02:30:36.373Z,18.7329
2024-05-09T02:31:30.958Z,18.7340
2024-05-09T02:32:33.696Z,18.7274
2024-05-09T02:33:36.479Z,18.7334
2024-05-09T02:34:38.848Z,18.7436
2024-05-09T02:35:41.455Z,18.7373
2024-05-09T02:36:43.873Z,18.7375
2024-05-09T02:37:46.664Z,18.7321
2024-05-09T02:38:49.043Z,18.7373
2024-05-09T02:39:51.625Z,18.7364
2024-05-09T02:40:54.234Z,18.7352
2024-05-09T02:41:56.793Z,18.7375
2024-05-09T02:42:59.438Z,18.7340
2024-05-09T02:44:02.021Z,18.7334
2024-05-09T02:45:04.536Z,18.7311
2024-05-09T02:46:07.161Z,18.7311
2024-05-09T02:47:09.843Z,18.7264
2024-05-09T02:48:13.379Z,18.7286
2024-05-09T02:49:14.925Z,18.7321
2024-05-09T02:50:25.998Z,18.7278
2024-05-09T02:51:20.104Z,18.7319
2024-05-09T02:52:22.620Z,18.7323
2024-05-09T02:53:25.270Z,18.7319
2024-05-09T02:54:27.819Z,18.7284
2024-05-09T02:55:30.382Z,18.7319
2024-05-09T02:56:33.027Z,18.7362
2024-05-09T02:57:35.534Z,18.7317
2024-05-09T02:58:38.164Z,18.7301
2024-05-09T02:59:40.720Z,18.7227
2024-05-09T03:00:43.434Z,18.7307
2024-05-09T03:01:46.064Z,18.7344
2024-05-09T03:02:48.619Z,18.7331
2024-05-09T03:03:51.180Z,18.7416
2024-05-09T03:04:53.764Z,18.7364
2024-05-09T03:05:56.387Z,18.7410
2024-05-09T03:06:58.843Z,18.7329
2024-05-09T03:08:01.532Z,18.7395
2024-05-09T03:09:04.000Z,18.7329
2024-05-09T03:10:12.218Z,18.7397
2024-05-09T03:11:09.248Z,18.7297
2024-05-09T03:12:12.015Z,18.7196
2024-05-09T03:13:15.606Z,18.7198
2024-05-09T03:14:17.013Z,18.7221
2024-05-09T03:15:19.478Z,18.7266
2024-05-09T03:16:22.047Z,18.7301
2024-05-09T03:17:24.921Z,18.7186
2024-05-09T03:18:27.380Z,18.7262
2024-05-09T03:19:29.886Z,18.7235
2024-05-09T03:20:34.757Z,18.7231
2024-05-09T03:21:34.994Z,18.7241
2024-05-09T03:22:37.555Z,18.7206
2024-05-09T03:23:40.232Z,18.7206
2024-05-09T03:24:42.728Z,18.7274
2024-05-09T03:25:45.394Z,18.7276
2024-05-09T03:26:47.902Z,18.7286
2024-05-09T03:27:50.484Z,18.7295
2024-05-09T03:28:53.136Z,18.7307
2024-05-09T03:29:55.657Z,18.7241
2024-05-09T03:30:58.234Z,18.7231
2024-05-09T03:32:00.954Z,18.7194
2024-05-09T03:33:03.625Z,18.7321
2024-05-09T03:34:06.183Z,18.7229
2024-05-09T03:35:08.625Z,18.7196
2024-05-09T03:36:11.537Z,18.7336
2024-05-09T03:37:13.784Z,18.7253
2024-05-09T03:38:16.572Z,18.7266
2024-05-09T03:39:18.927Z,18.7405
2024-05-09T03:40:26.358Z,18.7377
2024-05-09T03:41:24.159Z,18.7418
2024-05-09T03:42:26.685Z,18.7364
2024-05-09T03:43:29.253Z,18.7407
2024-05-09T03:44:31.928Z,18.7397
2024-05-09T03:45:34.452Z,18.7379
2024-05-09T03:46:37.034Z,18.7352
2024-05-09T03:47:39.782Z,18.7377
2024-05-09T03:48:42.308Z,18.7373
2024-05-09T03:49:44.862Z,18.7354
2024-05-09T03:50:47.474Z,18.7272
2024-05-09T03:51:49.939Z,18.7342
2024-05-09T03:52:52.655Z,18.7305
2024-05-09T03:53:55.177Z,18.7342
2024-05-09T03:54:57.736Z,18.7387
2024-05-09T03:56:00.394Z,18.7430
2024-05-09T03:57:02.877Z,18.7440
2024-05-09T03:58:05.455Z,18.7397
2024-05-09T03:59:08.089Z,18.7389
2024-05-09T04:00:17.824Z,18.7428
2024-05-09T04:01:13.252Z,18.7340
2024-05-09T04:02:15.864Z,18.7278
2024-05-09T04:03:18.758Z,18.7219
2024-05-09T04:04:21.090Z,18.7206
2024-05-09T04:05:23.562Z,18.7297
2024-05-09T04:06:26.176Z,18.7251
2024-05-09T04:07:28.773Z,18.7167
2024-05-09T04:08:31.367Z,18.7208
2024-05-09T04:09:33.903Z,18.7196
2024-05-09T04:10:36.472Z,18.7274
2024-05-09T04:11:39.156Z,18.7331
2024-05-09T04:12:41.666Z,18.7414
2024-05-09T04:13:44.261Z,18.7416
2024-05-09T04:14:46.823Z,18.7461
2024-05-09T04:15:49.406Z,18.7479
2024-05-09T04:16:52.076Z,18.7461
2024-05-09T04:17:54.922Z,18.7502
2024-05-09T04:18:57.270Z,18.7377
2024-05-09T04:19:59.787Z,18.7471
2024-05-09T04:21:02.501Z,18.7531
2024-05-09T04:22:04.912Z,18.7438
2024-05-09T04:23:08.603Z,18.7377
2024-05-09T04:24:10.066Z,18.7356
2024-05-09T04:25:12.683Z,18.7241
2024-05-09T04:26:15.266Z,18.7286
2024-05-09T04:27:17.871Z,18.7194
2024-05-09T04:28:20.400Z,18.7175
2024-05-09T04:29:23.041Z,18.7186
2024-05-09T04:30:34.035Z,18.7153
2024-05-09T04:31:28.166Z,18.7112
2024-05-09T04:32:30.954Z,18.7046
2024-05-09T04:33:33.575Z,18.7124
2024-05-09T04:34:36.031Z,18.7132
2024-05-09T04:35:38.913Z,18.7067
2024-05-09T04:36:43.861Z,18.7163
2024-05-09T04:37:43.762Z,18.7085
2024-05-09T04:38:46.310Z,18.7151
2024-05-09T04:39:48.843Z,18.7110
2024-05-09T04:40:51.529Z,18.7221
2024-05-09T04:41:54.018Z,18.7255
2024-05-09T04:42:56.610Z,18.7276
2024-05-09T04:43:59.206Z,18.7356
2024-05-09T04:45:01.764Z,18.7420
2024-05-09T04:46:04.345Z,18.7428
2024-05-09T04:47:06.984Z,18.7340
2024-05-09T04:48:09.806Z,18.7344
2024-05-09T04:49:12.214Z,18.7407
2024-05-09T04:50:20.987Z,18.7471
2024-05-09T04:51:17.323Z,18.7449
2024-05-09T04:52:19.889Z,18.7461
2024-05-09T04:53:22.512Z,18.7523
2024-05-09T04:54:33.809Z,18.7451
2024-05-09T04:55:27.677Z,18.7523
2024-05-09T04:56:30.234Z,18.7490
2024-05-09T04:57:32.785Z,18.7502
2024-05-09T04:58:35.371Z,18.7502
2024-05-09T04:59:38.018Z,18.7393
2024-05-09T05:00:41.326Z,18.7500
2024-05-09T05:01:43.118Z,18.7440
2024-05-09T05:02:45.784Z,18.7471
2024-05-09T05:03:48.420Z,18.7533
2024-05-09T05:04:51.021Z,18.7533
2024-05-09T05:05:53.512Z,18.7531
2024-05-09T05:06:57.779Z,18.7533
2024-05-09T05:07:58.695Z,18.7566
2024-05-09T05:09:01.245Z,18.7584
2024-05-09T05:10:05.749Z,18.7564
2024-05-09T05:11:06.447Z,18.7646
2024-05-09T05:12:09.165Z,18.7703
2024-05-09T05:13:11.577Z,18.7627
2024-05-09T05:14:14.180Z,18.7543
2024-05-09T05:15:16.732Z,18.7586
2024-05-09T05:16:19.322Z,18.7584
2024-05-09T05:17:22.010Z,18.7605
2024-05-09T05:18:24.650Z,18.7605
2024-05-09T05:19:27.299Z,18.7699
2024-05-09T05:20:33.593Z,18.7615
2024-05-09T05:21:32.334Z,18.7574
2024-05-09T05:22:34.870Z,18.7584
2024-05-09T05:23:37.505Z,18.7607
2024-05-09T05:24:39.991Z,18.7681
2024-05-09T05:25:42.585Z,18.7629
2024-05-09T05:26:45.193Z,18.7681
2024-05-09T05:27:47.743Z,18.7617
2024-05-09T05:28:50.377Z,18.7584
2024-05-09T05:29:52.941Z,18.7543
2024-05-09T05:30:55.522Z,18.7543
2024-05-09T05:31:58.210Z,18.7543
2024-05-09T05:33:01.001Z,18.7635
2024-05-09T05:34:03.355Z,18.7607
2024-05-09T05:35:05.913Z,18.7625
2024-05-09T05:36:08.466Z,18.7722
2024-05-09T05:37:11.008Z,18.7711
2024-05-09T05:38:13.657Z,18.7812
2024-05-09T05:39:16.249Z,18.7711
2024-05-09T05:40:28.014Z,18.7640
2024-05-09T05:41:21.432Z,18.7617
2024-05-09T05:42:24.004Z,18.7510
2024-05-09T05:43:26.591Z,18.7512
2024-05-09T05:44:29.306Z,18.7594
2024-05-09T05:45:31.757Z,18.7660
2024-05-09T05:46:34.359Z,18.7635
2024-05-09T05:47:37.043Z,18.7625
2024-05-09T05:48:39.795Z,18.7658
2024-05-09T05:49:42.139Z,18.7709
2024-05-09T05:50:44.779Z,18.7744
2024-05-09T05:51:47.314Z,18.7759
2024-05-09T05:52:49.882Z,18.7769
2024-05-09T05:53:52.459Z,18.7814
2024-05-09T05:54:55.048Z,18.7746
2024-05-09T05:55:57.682Z,18.7701
2024-05-09T05:57:00.216Z,18.7691
2024-05-09T05:58:02.875Z,18.7755
2024-05-09T05:59:05.417Z,18.7757
2024-05-09T06:00:09.782Z,18.7781
2024-05-09T06:01:10.562Z,18.7790
2024-05-09T06:02:13.230Z,18.7802
2024-05-09T06:03:15.838Z,18.7724
2024-05-09T06:04:18.455Z,18.7744
2024-05-09T06:05:20.898Z,18.7734
2024-05-09T06:06:23.469Z,18.7746
2024-05-09T06:07:26.031Z,18.7720
2024-05-09T06:08:30.532Z,18.7814
2024-05-09T06:09:31.276Z,18.7814
2024-05-09T06:10:38.868Z,18.7794
2024-05-09T06:11:36.434Z,18.7857
2024-05-09T06:12:38.969Z,18.7861
2024-05-09T06:13:41.537Z,18.7827
2024-05-09T06:14:44.123Z,18.7769
2024-05-09T06:15:46.720Z,18.7806
2024-05-09T06:16:49.337Z,18.7734
2024-05-09T06:17:51.999Z,18.7800
2024-05-09T06:18:54.688Z,18.7827
2024-05-09T06:19:57.074Z,18.7839
2024-05-09T06:20:59.679Z,18.7905
2024-05-09T06:22:02.218Z,18.8007
2024-05-09T06:23:05.062Z,18.8003
2024-05-09T06:24:07.384Z,18.7981
2024-05-09T06:25:09.983Z,18.7859
2024-05-09T06:26:12.583Z,18.7909
2024-05-09T06:27:15.146Z,18.7929
2024-05-09T06:28:17.710Z,18.7857
2024-05-09T06:29:20.341Z,18.7882
2024-05-09T06:30:30.277Z,18.7948
2024-05-09T06:31:25.476Z,18.7915
2024-05-09T06:32:28.237Z,18.7960
2024-05-09T06:33:30.853Z,18.7993
2024-05-09T06:34:33.387Z,18.8028
2024-05-09T06:35:36.114Z,18.8075
2024-05-09T06:36:38.514Z,18.8110
2024-05-09T06:37:40.968Z,18.8108
2024-05-09T06:38:43.566Z,18.8085
2024-05-09T06:39:46.136Z,18.8120
2024-05-09T06:40:48.783Z,18.8174
2024-05-09T06:41:51.317Z,18.8161
2024-05-09T06:42:53.881Z,18.8126
2024-05-09T06:43:56.513Z,18.8126
2024-05-09T06:44:59.072Z,18.8108
2024-05-09T06:46:01.663Z,18.8122
2024-05-09T06:47:04.324Z,18.8141
2024-05-09T06:48:07.080Z,18.8198
2024-05-09T06:49:09.560Z,18.8081
2024-05-09T06:50:20.217Z,18.8108
2024-05-09T06:51:14.729Z,18.8196
2024-05-09T06:52:17.157Z,18.8188
2024-05-09T06:53:19.755Z,18.8231
2024-05-09T06:54:22.331Z,18.8165
2024-05-09T06:55:24.891Z,18.8272
2024-05-09T06:56:27.518Z,18.8293
2024-05-09T06:57:30.075Z,18.8354
2024-05-09T06:58:32.649Z,18.8344
2024-05-09T06:59:35.380Z,18.8459
2024-05-09T07:00:40.340Z,18.8389
2024-05-09T07:01:40.483Z,18.8488
2024-05-09T07:02:43.116Z,18.8467
2024-05-09T07:03:45.733Z,18.8525
2024-05-09T07:04:48.244Z,18.8511
2024-05-09T07:05:50.757Z,18.8457
2024-05-09T07:06:53.370Z,18.8457
2024-05-09T07:07:55.916Z,18.8558
2024-05-09T07:08:58.527Z,18.8609
2024-05-09T07:10:01.086Z,18.8630
2024-05-09T07:11:03.809Z,18.8630
2024-05-09T07:12:06.373Z,18.8660
2024-05-09T07:13:08.823Z,18.8660
2024-05-09T07:14:11.495Z,18.8759
2024-05-09T07:15:13.984Z,18.8780
2024-05-09T07:16:16.625Z,18.8693
2024-05-09T07:17:19.269Z,18.8759
2024-05-09T07:18:21.941Z,18.8784
2024-05-09T07:19:24.576Z,18.8819
2024-05-09T07:20:34.085Z,18.8928
2024-05-09T07:21:29.485Z,18.8854
2024-05-09T07:22:32.064Z,18.8886
2024-05-09T07:23:34.815Z,18.8907
2024-05-09T07:24:37.240Z,18.8938
2024-05-09T07:25:39.832Z,18.9004
2024-05-09T07:26:42.463Z,18.9016
2024-05-09T07:27:44.972Z,18.9036
2024-05-09T07:28:47.618Z,18.9057
2024-05-09T07:29:50.134Z,18.9160
2024-05-09T07:30:52.729Z,18.9098
2024-05-09T07:31:55.343Z,18.9098
2024-05-09T07:32:58.115Z,18.9057
2024-05-09T07:34:00.705Z,18.9119
2024-05-09T07:35:03.182Z,18.9108
2024-05-09T07:36:05.657Z,18.8971
2024-05-09T07:37:08.262Z,18.9045
2024-05-09T07:38:10.862Z,18.9057
2024-05-09T07:39:13.367Z,18.9036
2024-05-09T07:40:24.882Z,18.9077
2024-05-09T07:41:18.594Z,18.9086
2024-05-09T07:42:21.126Z,18.9034
2024-05-09T07:43:23.743Z,18.9055
2024-05-09T07:44:26.285Z,18.9077
2024-05-09T07:45:45.219Z,18.9065
2024-05-09T07:47:37.114Z,18.9067
2024-05-09T07:50:34.437Z,18.9026
2024-05-09T07:53:14.438Z,18.9108
2024-05-09T07:53:34.619Z,18.9088
2024-05-09T07:53:52.382Z,18.9045
2024-05-09T07:54:52.293Z,18.9036
2024-05-09T07:55:55.248Z,18.9012
2024-05-09T07:56:57.564Z,18.9055
2024-05-09T07:57:59.914Z,18.9088
2024-05-09T07:59:02.457Z,18.9119
2024-05-09T08:00:06.655Z,18.9149
2024-05-09T08:01:07.715Z,18.9131
2024-05-09T08:02:10.374Z,18.9119
2024-05-09T08:03:12.859Z,18.8991
2024-05-09T08:04:15.469Z,18.9014
2024-05-09T08:05:18.102Z,18.8958
2024-05-09T08:06:20.538Z,18.8983
2024-05-09T08:07:23.192Z,18.9036
2024-05-09T08:08:25.722Z,18.9034
2024-05-09T08:09:28.339Z,18.8971
2024-05-09T08:10:30.960Z,18.9047
2024-05-09T08:11:33.504Z,18.9110
2024-05-09T08:12:36.099Z,18.9184
2024-05-09T08:13:38.725Z,18.9201
2024-05-09T08:14:41.213Z,18.9190
2024-05-09T08:15:43.896Z,18.9215
2024-05-09T08:16:46.390Z,18.9137
2024-05-09T08:17:49.063Z,18.9749
2024-05-09T08:18:51.671Z,19.0055
2024-05-09T08:19:54.136Z,19.0244
2024-05-09T08:20:56.719Z,19.0396
2024-05-09T08:21:59.341Z,19.0852
2024-05-09T08:23:01.887Z,19.1047
2024-05-09T08:24:04.485Z,19.1473
2024-05-09T08:25:07.076Z,19.1957
2024-05-09T08:26:09.639Z,19.2154
2024-05-09T08:27:12.242Z,19.2532
2024-05-09T08:28:14.852Z,19.2806
2024-05-09T08:29:17.407Z,19.3227
2024-05-09T08:30:25.304Z,19.3442
2024-05-09T08:31:22.792Z,19.3469
2024-05-09T08:32:25.185Z,19.3434
2024-05-09T08:33:27.835Z,19.3617
2024-05-09T08:34:30.358Z,19.3968
2024-05-09T08:35:32.934Z,19.4114
2024-05-09T08:36:35.513Z,19.4260
2024-05-09T08:37:40.483Z,19.4394
2024-05-09T08:38:40.656Z,19.4486
2024-05-09T08:39:43.258Z,19.4297
2024-05-09T08:40:45.898Z,19.4036
2024-05-09T08:41:48.398Z,19.4114
2024-05-09T08:42:51.003Z,19.3859
2024-05-09T08:43:53.562Z,19.3693
2024-05-09T08:44:56.133Z,19.3578
2024-05-09T08:45:58.766Z,19.3438
2024-05-09T08:47:01.385Z,19.3194
2024-05-09T08:48:04.070Z,19.3099
2024-05-09T08:49:06.642Z,19.2947
2024-05-09T08:50:13.783Z,19.2802
2024-05-09T08:51:11.641Z,19.2652
2024-05-09T08:52:14.229Z,19.2588
2024-05-09T08:53:16.822Z,19.2444
2024-05-09T08:54:19.395Z,19.2450
2024-05-09T08:55:21.994Z,19.2387
2024-05-09T08:56:24.600Z,19.2401
2024-05-09T08:57:27.228Z,19.2397
2024-05-09T08:58:29.721Z,19.2247
2024-05-09T08:59:32.340Z,19.2313
2024-05-09T09:00:37.310Z,19.2239
2024-05-09T09:01:38.136Z,19.2309
2024-05-09T09:02:40.250Z,19.2237
2024-05-09T09:03:42.848Z,19.2216
2024-05-09T09:04:45.295Z,19.2132
2024-05-09T09:05:47.839Z,19.2091
2024-05-09T09:06:51.453Z,19.2017
2024-05-09T09:07:52.975Z,19.1974
2024-05-09T09:08:55.550Z,19.1970
2024-05-09T09:09:58.154Z,19.2015
2024-05-09T09:11:00.761Z,19.2035
2024-05-09T09:12:03.327Z,19.2124
2024-05-09T09:13:05.932Z,19.2206
2024-05-09T09:14:08.484Z,19.2280
2024-05-09T09:15:11.076Z,19.2237
2024-05-09T09:16:13.750Z,19.2311
2024-05-09T09:17:16.338Z,19.2216
2024-05-09T09:18:19.292Z,19.2196
2024-05-09T09:19:21.581Z,19.1972
2024-05-09T09:20:29.402Z,19.2015
2024-05-09T09:21:26.773Z,19.2154
2024-05-09T09:22:29.164Z,19.2173
2024-05-09T09:23:31.880Z,19.2175
2024-05-09T09:24:34.373Z,19.2070
2024-05-09T09:25:36.920Z,19.2124
2024-05-09T09:26:39.503Z,19.2068
2024-05-09T09:27:42.167Z,19.2007
2024-05-09T09:28:44.669Z,19.1984
2024-05-09T09:29:47.293Z,19.2083
2024-05-09T09:30:49.905Z,19.2101
2024-05-09T09:31:52.445Z,19.2144
2024-05-09T09:32:55.123Z,19.2039
2024-05-09T09:33:57.936Z,19.2048
2024-05-09T09:35:00.237Z,19.2005
2024-05-09T09:36:02.753Z,19.1937
2024-05-09T09:37:05.404Z,19.1972
2024-05-09T09:38:07.992Z,19.1902
2024-05-09T09:39:10.560Z,19.1729
2024-05-09T09:40:13.468Z,19.1824
2024-05-09T09:41:15.758Z,19.1814
2024-05-09T09:42:18.265Z,19.1740
2024-05-09T09:43:21.177Z,19.1951
2024-05-09T09:44:23.412Z,19.1894
2024-05-09T09:45:26.053Z,19.1914
2024-05-09T09:46:28.740Z,19.1793
2024-05-09T09:47:31.300Z,19.1783
2024-05-09T09:48:34.080Z,19.1836
2024-05-09T09:49:36.411Z,19.1789
2024-05-09T09:50:38.965Z,19.1737
2024-05-09T09:51:41.608Z,19.1758
2024-05-09T09:52:44.123Z,19.1850
2024-05-09T09:53:46.748Z,19.1752
2024-05-09T09:54:49.381Z,19.1635
2024-05-09T09:55:51.897Z,19.1717
2024-05-09T09:56:54.453Z,19.1707
2024-05-09T09:57:57.112Z,19.1760
2024-05-09T09:58:59.621Z,19.1774
2024-05-09T10:00:03.119Z,19.1781
2024-05-09T10:01:04.986Z,19.1731
2024-05-09T10:02:07.600Z,19.1750
2024-05-09T10:03:10.133Z,19.1717
2024-05-09T10:04:12.692Z,19.1729
2024-05-09T10:05:15.160Z,19.1770
2024-05-09T10:06:17.681Z,19.1752
2024-05-09T10:07:20.354Z,19.1822
2024-05-09T10:08:22.858Z,19.1750
2024-05-09T10:09:25.473Z,19.1770
2024-05-09T10:10:32.317Z,19.1772
2024-05-09T10:11:31.679Z,19.1666
2024-05-09T10:12:33.267Z,19.1740
2024-05-09T10:13:35.863Z,19.1770
2024-05-09T10:14:38.342Z,19.1676
2024-05-09T10:15:40.966Z,19.1614
2024-05-09T10:16:43.528Z,19.1696
2024-05-09T10:17:46.150Z,19.1707
2024-05-09T10:18:48.861Z,19.1762
2024-05-09T10:19:51.389Z,19.1729
2024-05-09T10:20:53.826Z,19.1770
2024-05-09T10:21:56.427Z,19.1686
2024-05-09T10:22:59.055Z,19.1760
2024-05-09T10:24:01.583Z,19.1655
2024-05-09T10:25:05.108Z,19.1668
2024-05-09T10:26:06.748Z,19.1676
2024-05-09T10:27:09.400Z,19.1666
2024-05-09T10:28:12.081Z,19.1676
2024-05-09T10:29:14.517Z,19.1707
2024-05-09T10:30:25.816Z,19.1696
2024-05-09T10:31:19.683Z,19.1727
2024-05-09T10:32:22.363Z,19.1717
2024-05-09T10:33:24.987Z,19.1729
2024-05-09T10:34:27.632Z,19.1818
2024-05-09T10:35:30.023Z,19.1811
2024-05-09T10:36:32.644Z,19.1793
2024-05-09T10:37:35.236Z,19.1774
2024-05-09T10:38:37.748Z,19.1801
2024-05-09T10:39:40.359Z,19.1826
2024-05-09T10:40:42.964Z,19.1949
2024-05-09T10:41:45.493Z,19.1902
2024-05-09T10:42:48.183Z,19.1801
2024-05-09T10:43:50.705Z,19.1795
2024-05-09T10:44:53.338Z,19.1770
2024-05-09T10:45:55.856Z,19.1814
2024-05-09T10:46:58.437Z,19.1768
2024-05-09T10:48:01.163Z,19.1737
2024-05-09T10:49:06.294Z,19.1793
2024-05-09T10:50:12.710Z,19.1799
2024-05-09T10:51:08.744Z,19.1719
2024-05-09T10:52:11.350Z,19.1686
2024-05-09T10:53:13.895Z,19.1779
2024-05-09T10:54:16.509Z,19.1850
2024-05-09T10:55:19.285Z,19.1742
2024-05-09T10:56:21.663Z,19.1816
2024-05-09T10:57:24.230Z,19.1760
2024-05-09T10:58:26.805Z,19.1781
2024-05-09T10:59:29.400Z,19.1742
2024-05-09T11:00:35.863Z,19.1774
2024-05-09T11:01:34.639Z,19.1748
2024-05-09T11:02:37.291Z,19.1737
2024-05-09T11:03:40.127Z,19.1719
2024-05-09T11:04:42.485Z,19.1727
2024-05-09T11:05:45.094Z,19.1750
2024-05-09T11:06:47.532Z,19.1729
2024-05-09T11:07:50.071Z,19.1727
2024-05-09T11:08:52.649Z,19.1791
2024-05-09T11:09:55.301Z,19.1750
2024-05-09T11:10:57.855Z,19.1805
2024-05-09T11:12:00.463Z,19.1814
2024-05-09T11:13:03.048Z,19.1750
2024-05-09T11:14:05.565Z,19.1811
2024-05-09T11:15:08.180Z,19.1826
2024-05-09T11:16:10.801Z,19.1762
2024-05-09T11:17:13.322Z,19.1929
2024-05-09T11:18:16.063Z,19.1836
2024-05-09T11:19:18.673Z,19.1883
2024-05-09T11:20:26.942Z,19.1791
2024-05-09T11:21:23.652Z,19.1816
2024-05-09T11:22:26.289Z,19.1846
2024-05-09T11:23:28.804Z,19.1774
2024-05-09T11:24:31.407Z,19.1762
2024-05-09T11:25:33.975Z,19.1836
2024-05-09T11:26:36.612Z,19.1937
2024-05-09T11:27:39.184Z,19.1980
2024-05-09T11:28:41.734Z,19.1869
2024-05-09T11:29:44.315Z,19.1879
2024-05-09T11:30:46.983Z,19.1836
2024-05-09T11:31:49.668Z,19.1836
2024-05-09T11:32:52.298Z,19.1801
2024-05-09T11:33:54.846Z,19.1848
2024-05-09T11:34:57.244Z,19.1816
2024-05-09T11:35:59.823Z,19.1795
2024-05-09T11:37:02.494Z,19.1908
2024-05-09T11:38:04.995Z,19.1992
2024-05-09T11:39:07.593Z,19.1926
2024-05-09T11:40:16.814Z,19.1937
2024-05-09T11:41:12.774Z,19.1937
2024-05-09T11:42:15.326Z,19.1980
2024-05-09T11:43:18.053Z,19.1828
2024-05-09T11:44:20.523Z,19.1959
2024-05-09T11:45:23.148Z,19.1947
2024-05-09T11:46:25.819Z,19.1959
2024-05-09T11:47:28.289Z,19.2060
2024-05-09T11:48:31.148Z,19.2050
2024-05-09T11:49:33.563Z,19.2027
2024-05-09T11:50:36.444Z,19.2007
2024-05-09T11:51:38.637Z,19.2066
2024-05-09T11:52:41.164Z,19.2060
2024-05-09T11:53:43.762Z,19.1970
2024-05-09T11:54:46.381Z,19.1994
2024-05-09T11:55:48.946Z,19.2062
2024-05-09T11:56:51.604Z,19.1992
2024-05-09T11:57:54.097Z,19.1947
2024-05-09T11:58:56.664Z,19.2060
2024-05-09T11:59:59.249Z,19.2025
2024-05-09T12:01:01.979Z,19.1982
2024-05-09T12:02:04.589Z,19.2037
2024-05-09T12:03:07.099Z,19.1951
2024-05-09T12:04:09.699Z,19.1908
2024-05-09T12:05:12.246Z,19.1916
2024-05-09T12:06:14.769Z,19.1972
2024-05-09T12:07:17.439Z,19.2019
2024-05-09T12:08:19.934Z,19.2083
2024-05-09T12:09:22.494Z,19.2093
2024-05-09T12:10:32.125Z,19.2144
2024-05-09T12:11:27.703Z,19.2058
2024-05-09T12:12:30.302Z,19.2134
2024-05-09T12:13:32.957Z,19.2068
2024-05-09T12:14:35.447Z,19.2081
2024-05-09T12:15:38.879Z,19.2035
2024-05-09T12:16:40.653Z,19.2103
2024-05-09T12:17:43.288Z,19.2044
2024-05-09T12:18:45.904Z,19.2015
2024-05-09T12:19:48.419Z,19.2083
2024-05-09T12:20:50.949Z,19.2048
2024-05-09T12:21:53.553Z,19.1984
2024-05-09T12:22:56.099Z,19.1984
2024-05-09T12:23:58.679Z,19.2005
2024-05-09T12:25:01.316Z,19.1994
2024-05-09T12:26:03.868Z,19.1902
2024-05-09T12:27:06.457Z,19.1972
2024-05-09T12:28:09.198Z,19.2005
2024-05-09T12:29:11.622Z,19.1892
2024-05-09T12:30:20.729Z,19.1914
2024-05-09T12:31:16.807Z,19.1904
2024-05-09T12:32:19.420Z,19.1879
2024-05-09T12:33:22.144Z,19.1894
2024-05-09T12:34:24.574Z,19.2015
2024-05-09T12:35:27.152Z,19.2060
2024-05-09T12:36:29.702Z,19.2132
2024-05-09T12:37:32.313Z,19.2093
2024-05-09T12:38:34.915Z,19.2111
2024-05-09T12:39:37.538Z,19.2048